sensor_id;sensor_type;location;lat;lon;timestamp;P1;durP1;ratioP1;P2;durP2;ratioP2
2019;SDS011;1014;51.960;8.542;2022-08-19T00:00:51;25.97;;;23.83;;
2019;SDS011;1014;51.960;8.542;2022-08-19T00:03:19;26.93;;;24.90;;
2019;SDS011;1014;51.960;8.542;2022-08-19T00:05:46;26.27;;;24.27;;
2019;SDS011;1014;51.960;8.542;2022-08-19T00:08:13;26.40;;;24.77;;
2019;SDS011;1014;51.960;8.542;2022-08-19T00:10:41;26.50;;;24.67;;
2019;SDS011;1014;51.960;8.542;2022-08-19T00:13:08;25.17;;;22.90;;
2019;SDS011;1014;51.960;8.542;2022-08-19T00:15:37;26.17;;;24.40;;
2019;SDS011;1014;51.960;8.542;2022-08-19T00:18:04;25.80;;;24.00;;
2019;SDS011;1014;51.960;8.542;2022-08-19T00:20:32;26.27;;;24.47;;
2019;SDS011;1014;51.960;8.542;2022-08-19T00:22:59;27.40;;;25.30;;
2019;SDS011;1014;51.960;8.542;2022-08-19T00:25:29;25.50;;;23.70;;
2019;SDS011;1014;51.960;8.542;2022-08-19T00:27:56;26.87;;;24.70;;
2019;SDS011;1014;51.960;8.542;2022-08-19T00:30:24;24.77;;;23.27;;
2019;SDS011;1014;51.960;8.542;2022-08-19T00:32:53;26.50;;;24.40;;
2019;SDS011;1014;51.960;8.542;2022-08-19T00:35:21;25.87;;;24.20;;
2019;SDS011;1014;51.960;8.542;2022-08-19T00:37:49;26.07;;;24.37;;
2019;SDS011;1014;51.960;8.542;2022-08-19T00:40:16;25.43;;;23.90;;
2019;SDS011;1014;51.960;8.542;2022-08-19T00:42:44;27.23;;;25.23;;
2019;SDS011;1014;51.960;8.542;2022-08-19T00:45:13;25.33;;;23.63;;
2019;SDS011;1014;51.960;8.542;2022-08-19T00:47:42;25.97;;;24.10;;
2019;SDS011;1014;51.960;8.542;2022-08-19T00:50:11;25.67;;;23.70;;
2019;SDS011;1014;51.960;8.542;2022-08-19T00:52:40;25.43;;;23.77;;
2019;SDS011;1014;51.960;8.542;2022-08-19T00:55:10;25.43;;;23.53;;
2019;SDS011;1014;51.960;8.542;2022-08-19T00:57:40;26.67;;;24.50;;
2019;SDS011;1014;51.960;8.542;2022-08-19T01:00:11;26.13;;;24.23;;
2019;SDS011;1014;51.960;8.542;2022-08-19T01:02:39;26.63;;;24.70;;
2019;SDS011;1014;51.960;8.542;2022-08-19T01:05:08;24.97;;;23.33;;
2019;SDS011;1014;51.960;8.542;2022-08-19T01:07:37;26.43;;;24.63;;
2019;SDS011;1014;51.960;8.542;2022-08-19T01:10:05;26.47;;;24.67;;
2019;SDS011;1014;51.960;8.542;2022-08-19T01:12:33;26.53;;;24.57;;
2019;SDS011;1014;51.960;8.542;2022-08-19T01:15:01;27.00;;;24.90;;
2019;SDS011;1014;51.960;8.542;2022-08-19T01:17:29;26.70;;;24.67;;
2019;SDS011;1014;51.960;8.542;2022-08-19T01:19:56;27.27;;;25.43;;
2019;SDS011;1014;51.960;8.542;2022-08-19T01:22:29;27.60;;;25.63;;
2019;SDS011;1014;51.960;8.542;2022-08-19T01:24:57;26.73;;;24.70;;
2019;SDS011;1014;51.960;8.542;2022-08-19T01:27:24;27.90;;;25.50;;
2019;SDS011;1014;51.960;8.542;2022-08-19T01:29:52;26.10;;;24.20;;
2019;SDS011;1014;51.960;8.542;2022-08-19T01:32:19;27.73;;;25.40;;
2019;SDS011;1014;51.960;8.542;2022-08-19T01:34:47;30.70;;;28.20;;
2019;SDS011;1014;51.960;8.542;2022-08-19T01:37:14;29.73;;;27.43;;
2019;SDS011;1014;51.960;8.542;2022-08-19T01:39:43;28.80;;;26.50;;
2019;SDS011;1014;51.960;8.542;2022-08-19T01:42:11;29.73;;;27.43;;
2019;SDS011;1014;51.960;8.542;2022-08-19T01:44:38;29.50;;;27.20;;
2019;SDS011;1014;51.960;8.542;2022-08-19T01:47:06;29.73;;;27.30;;
2019;SDS011;1014;51.960;8.542;2022-08-19T01:49:35;30.07;;;27.77;;
2019;SDS011;1014;51.960;8.542;2022-08-19T01:52:03;29.07;;;27.07;;
2019;SDS011;1014;51.960;8.542;2022-08-19T01:54:30;28.70;;;26.37;;
2019;SDS011;1014;51.960;8.542;2022-08-19T01:57:00;30.30;;;28.00;;
2019;SDS011;1014;51.960;8.542;2022-08-19T01:59:29;29.03;;;27.03;;
2019;SDS011;1014;51.960;8.542;2022-08-19T02:01:57;29.77;;;27.77;;
2019;SDS011;1014;51.960;8.542;2022-08-19T02:04:24;30.70;;;28.20;;
2019;SDS011;1014;51.960;8.542;2022-08-19T02:06:52;29.20;;;26.73;;
2019;SDS011;1014;51.960;8.542;2022-08-19T02:09:19;28.60;;;26.60;;
2019;SDS011;1014;51.960;8.542;2022-08-19T02:11:46;29.80;;;27.10;;
2019;SDS011;1014;51.960;8.542;2022-08-19T02:14:15;27.70;;;25.53;;
2019;SDS011;1014;51.960;8.542;2022-08-19T02:16:43;28.20;;;26.23;;
2019;SDS011;1014;51.960;8.542;2022-08-19T02:19:10;26.57;;;24.77;;
2019;SDS011;1014;51.960;8.542;2022-08-19T02:21:38;27.80;;;25.90;;
2019;SDS011;1014;51.960;8.542;2022-08-19T02:24:05;28.13;;;25.83;;
2019;SDS011;1014;51.960;8.542;2022-08-19T02:26:32;30.07;;;27.67;;
2019;SDS011;1014;51.960;8.542;2022-08-19T02:29:00;27.83;;;25.87;;
2019;SDS011;1014;51.960;8.542;2022-08-19T02:31:29;28.30;;;26.30;;
2019;SDS011;1014;51.960;8.542;2022-08-19T02:33:56;30.07;;;27.90;;
2019;SDS011;1014;51.960;8.542;2022-08-19T02:36:24;28.27;;;26.17;;
2019;SDS011;1014;51.960;8.542;2022-08-19T02:38:53;29.20;;;27.20;;
2019;SDS011;1014;51.960;8.542;2022-08-19T02:41:20;28.30;;;26.00;;
2019;SDS011;1014;51.960;8.542;2022-08-19T02:43:48;28.13;;;25.90;;
2019;SDS011;1014;51.960;8.542;2022-08-19T02:46:17;28.43;;;26.47;;
2019;SDS011;1014;51.960;8.542;2022-08-19T02:48:47;28.07;;;25.63;;
2019;SDS011;1014;51.960;8.542;2022-08-19T02:51:16;27.13;;;25.13;;
2019;SDS011;1014;51.960;8.542;2022-08-19T02:53:43;29.07;;;27.07;;
2019;SDS011;1014;51.960;8.542;2022-08-19T02:56:11;26.70;;;24.97;;
2019;SDS011;1014;51.960;8.542;2022-08-19T02:58:38;27.23;;;25.33;;
2019;SDS011;1014;51.960;8.542;2022-08-19T03:01:06;26.37;;;24.60;;
2019;SDS011;1014;51.960;8.542;2022-08-19T03:03:33;27.00;;;25.20;;
2019;SDS011;1014;51.960;8.542;2022-08-19T03:06:09;26.30;;;24.50;;
2019;SDS011;1014;51.960;8.542;2022-08-19T03:08:38;27.87;;;25.67;;
2019;SDS011;1014;51.960;8.542;2022-08-19T03:11:05;27.30;;;25.40;;
2019;SDS011;1014;51.960;8.542;2022-08-19T03:13:33;26.13;;;24.50;;
2019;SDS011;1014;51.960;8.542;2022-08-19T03:16:03;26.13;;;24.37;;
2019;SDS011;1014;51.960;8.542;2022-08-19T03:18:31;26.43;;;24.63;;
2019;SDS011;1014;51.960;8.542;2022-08-19T03:20:58;25.70;;;24.10;;
2019;SDS011;1014;51.960;8.542;2022-08-19T03:23:27;28.00;;;25.80;;
2019;SDS011;1014;51.960;8.542;2022-08-19T03:25:54;27.03;;;25.13;;
2019;SDS011;1014;51.960;8.542;2022-08-19T03:28:22;28.40;;;26.30;;
2019;SDS011;1014;51.960;8.542;2022-08-19T03:30:56;27.17;;;25.37;;
2019;SDS011;1014;51.960;8.542;2022-08-19T03:33:23;27.07;;;25.37;;
2019;SDS011;1014;51.960;8.542;2022-08-19T03:36:06;26.47;;;24.60;;
2019;SDS011;1014;51.960;8.542;2022-08-19T03:38:36;27.27;;;25.40;;
2019;SDS011;1014;51.960;8.542;2022-08-19T03:41:04;27.10;;;25.30;;
2019;SDS011;1014;51.960;8.542;2022-08-19T03:43:33;26.90;;;25.00;;
2019;SDS011;1014;51.960;8.542;2022-08-19T03:46:01;27.23;;;25.33;;
2019;SDS011;1014;51.960;8.542;2022-08-19T03:48:29;27.40;;;25.10;;
2019;SDS011;1014;51.960;8.542;2022-08-19T03:50:56;27.20;;;25.10;;
2019;SDS011;1014;51.960;8.542;2022-08-19T03:53:24;27.17;;;25.20;;
2019;SDS011;1014;51.960;8.542;2022-08-19T03:55:54;26.67;;;24.87;;
2019;SDS011;1014;51.960;8.542;2022-08-19T03:58:21;27.67;;;25.57;;
2019;SDS011;1014;51.960;8.542;2022-08-19T04:00:49;28.47;;;26.00;;
2019;SDS011;1014;51.960;8.542;2022-08-19T04:03:16;28.50;;;26.30;;
2019;SDS011;1014;51.960;8.542;2022-08-19T04:05:45;27.70;;;25.50;;
2019;SDS011;1014;51.960;8.542;2022-08-19T04:08:13;27.70;;;25.07;;
2019;SDS011;1014;51.960;8.542;2022-08-19T04:10:45;28.43;;;26.57;;
2019;SDS011;1014;51.960;8.542;2022-08-19T04:13:14;26.80;;;24.90;;
2019;SDS011;1014;51.960;8.542;2022-08-19T04:15:43;25.93;;;24.17;;
2019;SDS011;1014;51.960;8.542;2022-08-19T04:18:12;26.50;;;24.67;;
2019;SDS011;1014;51.960;8.542;2022-08-19T04:20:43;25.77;;;23.73;;
2019;SDS011;1014;51.960;8.542;2022-08-19T04:23:10;26.77;;;24.90;;
2019;SDS011;1014;51.960;8.542;2022-08-19T04:25:38;25.37;;;23.77;;
2019;SDS011;1014;51.960;8.542;2022-08-19T04:28:07;27.70;;;25.60;;
2019;SDS011;1014;51.960;8.542;2022-08-19T04:30:40;27.63;;;25.67;;
2019;SDS011;1014;51.960;8.542;2022-08-19T04:33:08;27.70;;;25.80;;
2019;SDS011;1014;51.960;8.542;2022-08-19T04:35:36;29.40;;;27.20;;
2019;SDS011;1014;51.960;8.542;2022-08-19T04:38:04;28.40;;;26.20;;
2019;SDS011;1014;51.960;8.542;2022-08-19T04:40:32;29.10;;;26.90;;
2019;SDS011;1014;51.960;8.542;2022-08-19T04:43:16;26.83;;;25.00;;
2019;SDS011;1014;51.960;8.542;2022-08-19T04:45:45;27.70;;;25.90;;
2019;SDS011;1014;51.960;8.542;2022-08-19T04:48:13;28.00;;;25.80;;
2019;SDS011;1014;51.960;8.542;2022-08-19T04:50:41;28.27;;;26.10;;
2019;SDS011;1014;51.960;8.542;2022-08-19T04:53:08;28.60;;;26.47;;
2019;SDS011;1014;51.960;8.542;2022-08-19T04:55:40;27.33;;;25.40;;
2019;SDS011;1014;51.960;8.542;2022-08-19T04:58:08;29.33;;;27.07;;
2019;SDS011;1014;51.960;8.542;2022-08-19T05:00:37;29.13;;;27.10;;
2019;SDS011;1014;51.960;8.542;2022-08-19T05:03:06;29.50;;;27.57;;
2019;SDS011;1014;51.960;8.542;2022-08-19T05:05:33;29.80;;;27.53;;
2019;SDS011;1014;51.960;8.542;2022-08-19T05:08:01;28.40;;;26.30;;
2019;SDS011;1014;51.960;8.542;2022-08-19T05:10:28;29.40;;;26.77;;
2019;SDS011;1014;51.960;8.542;2022-08-19T05:12:56;30.33;;;28.03;;
2019;SDS011;1014;51.960;8.542;2022-08-19T05:15:24;30.40;;;28.00;;
2019;SDS011;1014;51.960;8.542;2022-08-19T05:17:51;29.00;;;27.00;;
2019;SDS011;1014;51.960;8.542;2022-08-19T05:20:38;28.70;;;26.70;;
2019;SDS011;1014;51.960;8.542;2022-08-19T05:23:23;28.17;;;26.20;;
2019;SDS011;1014;51.960;8.542;2022-08-19T05:25:51;28.27;;;26.23;;
2019;SDS011;1014;51.960;8.542;2022-08-19T05:28:18;29.90;;;27.30;;
2019;SDS011;1014;51.960;8.542;2022-08-19T05:30:46;30.60;;;28.40;;
2019;SDS011;1014;51.960;8.542;2022-08-19T05:33:15;29.27;;;26.90;;
2019;SDS011;1014;51.960;8.542;2022-08-19T05:35:44;29.10;;;27.03;;
2019;SDS011;1014;51.960;8.542;2022-08-19T05:38:13;29.60;;;27.40;;
2019;SDS011;1014;51.960;8.542;2022-08-19T05:40:40;28.20;;;26.20;;
2019;SDS011;1014;51.960;8.542;2022-08-19T05:43:13;27.80;;;25.90;;
2019;SDS011;1014;51.960;8.542;2022-08-19T05:45:41;28.57;;;26.67;;
2019;SDS011;1014;51.960;8.542;2022-08-19T05:48:09;29.87;;;27.30;;
2019;SDS011;1014;51.960;8.542;2022-08-19T05:50:37;28.33;;;26.33;;
2019;SDS011;1014;51.960;8.542;2022-08-19T05:53:06;29.40;;;27.27;;
2019;SDS011;1014;51.960;8.542;2022-08-19T05:55:34;32.70;;;30.30;;
2019;SDS011;1014;51.960;8.542;2022-08-19T05:58:03;31.80;;;29.10;;
2019;SDS011;1014;51.960;8.542;2022-08-19T06:00:32;29.80;;;27.70;;
2019;SDS011;1014;51.960;8.542;2022-08-19T06:03:00;32.87;;;29.67;;
2019;SDS011;1014;51.960;8.542;2022-08-19T06:05:28;31.23;;;28.80;;
2019;SDS011;1014;51.960;8.542;2022-08-19T06:07:56;31.70;;;29.30;;
2019;SDS011;1014;51.960;8.542;2022-08-19T06:10:25;32.13;;;29.60;;
2019;SDS011;1014;51.960;8.542;2022-08-19T06:12:52;34.87;;;31.93;;
2019;SDS011;1014;51.960;8.542;2022-08-19T06:15:21;34.10;;;31.20;;
2019;SDS011;1014;51.960;8.542;2022-08-19T06:17:50;34.00;;;31.30;;
2019;SDS011;1014;51.960;8.542;2022-08-19T06:20:18;32.33;;;29.63;;
2019;SDS011;1014;51.960;8.542;2022-08-19T06:22:46;33.20;;;30.40;;
2019;SDS011;1014;51.960;8.542;2022-08-19T06:25:15;32.90;;;29.97;;
2019;SDS011;1014;51.960;8.542;2022-08-19T06:27:44;32.10;;;29.70;;
2019;SDS011;1014;51.960;8.542;2022-08-19T06:30:12;33.20;;;30.40;;
2019;SDS011;1014;51.960;8.542;2022-08-19T06:32:39;31.97;;;29.27;;
2019;SDS011;1014;51.960;8.542;2022-08-19T06:35:07;30.30;;;28.10;;
2019;SDS011;1014;51.960;8.542;2022-08-19T06:37:36;31.33;;;29.00;;
2019;SDS011;1014;51.960;8.542;2022-08-19T06:40:03;31.40;;;28.60;;
2019;SDS011;1014;51.960;8.542;2022-08-19T06:42:33;30.10;;;28.00;;
2019;SDS011;1014;51.960;8.542;2022-08-19T06:45:02;30.83;;;28.30;;
2019;SDS011;1014;51.960;8.542;2022-08-19T06:47:29;31.83;;;29.07;;
2019;SDS011;1014;51.960;8.542;2022-08-19T06:49:57;30.30;;;28.07;;
2019;SDS011;1014;51.960;8.542;2022-08-19T06:52:28;29.67;;;27.50;;
2019;SDS011;1014;51.960;8.542;2022-08-19T06:54:55;30.87;;;28.40;;
2019;SDS011;1014;51.960;8.542;2022-08-19T06:57:23;30.93;;;28.50;;
2019;SDS011;1014;51.960;8.542;2022-08-19T06:59:50;31.70;;;29.07;;
2019;SDS011;1014;51.960;8.542;2022-08-19T07:02:19;30.37;;;28.27;;
2019;SDS011;1014;51.960;8.542;2022-08-19T07:04:51;28.60;;;26.30;;
2019;SDS011;1014;51.960;8.542;2022-08-19T07:07:19;29.30;;;27.30;;
2019;SDS011;1014;51.960;8.542;2022-08-19T07:09:47;27.47;;;25.47;;
2019;SDS011;1014;51.960;8.542;2022-08-19T07:12:15;27.80;;;25.67;;
2019;SDS011;1014;51.960;8.542;2022-08-19T07:14:42;25.73;;;23.93;;
2019;SDS011;1014;51.960;8.542;2022-08-19T07:17:12;27.63;;;25.33;;
2019;SDS011;1014;51.960;8.542;2022-08-19T07:19:41;25.50;;;23.80;;
2019;SDS011;1014;51.960;8.542;2022-08-19T07:22:08;25.93;;;24.23;;
2019;SDS011;1014;51.960;8.542;2022-08-19T07:24:36;26.13;;;24.40;;
2019;SDS011;1014;51.960;8.542;2022-08-19T07:27:04;26.90;;;24.90;;
2019;SDS011;1014;51.960;8.542;2022-08-19T07:29:33;24.70;;;22.90;;
2019;SDS011;1014;51.960;8.542;2022-08-19T07:32:01;24.87;;;23.37;;
2019;SDS011;1014;51.960;8.542;2022-08-19T07:34:31;26.23;;;24.40;;
2019;SDS011;1014;51.960;8.542;2022-08-19T07:37:03;25.13;;;23.50;;
2019;SDS011;1014;51.960;8.542;2022-08-19T07:39:32;26.60;;;24.80;;
2019;SDS011;1014;51.960;8.542;2022-08-19T07:42:01;25.80;;;24.20;;
2019;SDS011;1014;51.960;8.542;2022-08-19T07:44:28;24.27;;;22.43;;
2019;SDS011;1014;51.960;8.542;2022-08-19T07:46:56;24.63;;;23.03;;
2019;SDS011;1014;51.960;8.542;2022-08-19T07:49:25;24.33;;;22.73;;
2019;SDS011;1014;51.960;8.542;2022-08-19T07:51:53;24.40;;;22.90;;
2019;SDS011;1014;51.960;8.542;2022-08-19T07:54:23;25.13;;;23.60;;
2019;SDS011;1014;51.960;8.542;2022-08-19T07:56:50;25.20;;;23.47;;
2019;SDS011;1014;51.960;8.542;2022-08-19T07:59:18;23.70;;;22.10;;
2019;SDS011;1014;51.960;8.542;2022-08-19T08:01:46;24.30;;;22.60;;
2019;SDS011;1014;51.960;8.542;2022-08-19T08:04:15;23.97;;;22.47;;
2019;SDS011;1014;51.960;8.542;2022-08-19T08:07:00;24.73;;;23.00;;
2019;SDS011;1014;51.960;8.542;2022-08-19T08:09:47;24.70;;;23.20;;
2019;SDS011;1014;51.960;8.542;2022-08-19T08:12:15;25.17;;;23.37;;
2019;SDS011;1014;51.960;8.542;2022-08-19T08:14:44;24.40;;;22.80;;
2019;SDS011;1014;51.960;8.542;2022-08-19T08:17:12;23.17;;;21.87;;
2019;SDS011;1014;51.960;8.542;2022-08-19T08:19:40;24.27;;;22.47;;
2019;SDS011;1014;51.960;8.542;2022-08-19T08:22:08;25.53;;;23.60;;
2019;SDS011;1014;51.960;8.542;2022-08-19T08:24:59;24.90;;;23.50;;
2019;SDS011;1014;51.960;8.542;2022-08-19T08:27:27;23.97;;;22.47;;
2019;SDS011;1014;51.960;8.542;2022-08-19T08:29:56;27.00;;;25.10;;
2019;SDS011;1014;51.960;8.542;2022-08-19T08:32:23;26.50;;;24.90;;
2019;SDS011;1014;51.960;8.542;2022-08-19T08:34:51;26.13;;;24.33;;
2019;SDS011;1014;51.960;8.542;2022-08-19T08:37:19;24.33;;;22.90;;
2019;SDS011;1014;51.960;8.542;2022-08-19T08:39:47;26.87;;;24.87;;
2019;SDS011;1014;51.960;8.542;2022-08-19T08:42:19;25.27;;;23.77;;
2019;SDS011;1014;51.960;8.542;2022-08-19T08:44:49;24.50;;;22.93;;
2019;SDS011;1014;51.960;8.542;2022-08-19T08:47:18;26.13;;;24.20;;
2019;SDS011;1014;51.960;8.542;2022-08-19T08:49:48;27.20;;;25.57;;
2019;SDS011;1014;51.960;8.542;2022-08-19T08:52:19;26.37;;;24.80;;
2019;SDS011;1014;51.960;8.542;2022-08-19T08:54:48;25.00;;;23.60;;
2019;SDS011;1014;51.960;8.542;2022-08-19T08:57:20;26.43;;;24.73;;
2019;SDS011;1014;51.960;8.542;2022-08-19T08:59:50;24.90;;;23.07;;
2019;SDS011;1014;51.960;8.542;2022-08-19T09:02:18;27.80;;;25.60;;
2019;SDS011;1014;51.960;8.542;2022-08-19T09:04:46;25.53;;;23.93;;
2019;SDS011;1014;51.960;8.542;2022-08-19T09:07:17;25.33;;;23.73;;
2019;SDS011;1014;51.960;8.542;2022-08-19T09:09:52;25.63;;;24.07;;
2019;SDS011;1014;51.960;8.542;2022-08-19T09:12:24;25.90;;;24.10;;
2019;SDS011;1014;51.960;8.542;2022-08-19T09:14:55;25.33;;;23.70;;
2019;SDS011;1014;51.960;8.542;2022-08-19T09:17:24;23.07;;;21.77;;
2019;SDS011;1014;51.960;8.542;2022-08-19T09:19:56;25.37;;;23.87;;
2019;SDS011;1014;51.960;8.542;2022-08-19T09:22:24;24.20;;;22.77;;
2019;SDS011;1014;51.960;8.542;2022-08-19T09:24:52;24.70;;;23.20;;
2019;SDS011;1014;51.960;8.542;2022-08-19T09:27:20;23.43;;;22.03;;
2019;SDS011;1014;51.960;8.542;2022-08-19T09:29:50;24.97;;;23.37;;
2019;SDS011;1014;51.960;8.542;2022-08-19T09:32:18;23.80;;;22.20;;
2019;SDS011;1014;51.960;8.542;2022-08-19T09:34:46;24.13;;;22.63;;
2019;SDS011;1014;51.960;8.542;2022-08-19T09:37:13;23.33;;;21.93;;
2019;SDS011;1014;51.960;8.542;2022-08-19T09:39:40;24.63;;;23.13;;
2019;SDS011;1014;51.960;8.542;2022-08-19T09:42:09;23.10;;;21.60;;
2019;SDS011;1014;51.960;8.542;2022-08-19T09:44:39;24.70;;;23.10;;
2019;SDS011;1014;51.960;8.542;2022-08-19T09:47:08;24.30;;;22.80;;
2019;SDS011;1014;51.960;8.542;2022-08-19T09:49:36;26.60;;;24.70;;
2019;SDS011;1014;51.960;8.542;2022-08-19T09:52:04;24.17;;;22.50;;
2019;SDS011;1014;51.960;8.542;2022-08-19T09:54:32;23.97;;;22.47;;
2019;SDS011;1014;51.960;8.542;2022-08-19T09:57:00;25.33;;;23.60;;
2019;SDS011;1014;51.960;8.542;2022-08-19T09:59:28;24.30;;;22.90;;
2019;SDS011;1014;51.960;8.542;2022-08-19T10:01:55;24.70;;;23.00;;
2019;SDS011;1014;51.960;8.542;2022-08-19T10:04:24;25.07;;;23.37;;
2019;SDS011;1014;51.960;8.542;2022-08-19T10:07:12;24.60;;;22.90;;
2019;SDS011;1014;51.960;8.542;2022-08-19T10:09:39;24.40;;;22.80;;
2019;SDS011;1014;51.960;8.542;2022-08-19T10:12:07;24.93;;;23.13;;
2019;SDS011;1014;51.960;8.542;2022-08-19T10:14:35;24.50;;;23.00;;
2019;SDS011;1014;51.960;8.542;2022-08-19T10:17:02;25.23;;;23.63;;
2019;SDS011;1014;51.960;8.542;2022-08-19T10:19:31;25.30;;;23.70;;
2019;SDS011;1014;51.960;8.542;2022-08-19T10:22:02;24.53;;;23.03;;
2019;SDS011;1014;51.960;8.542;2022-08-19T10:24:30;25.60;;;23.90;;
2019;SDS011;1014;51.960;8.542;2022-08-19T10:26:58;26.00;;;24.30;;
2019;SDS011;1014;51.960;8.542;2022-08-19T10:29:28;25.43;;;23.90;;
2019;SDS011;1014;51.960;8.542;2022-08-19T10:31:56;26.23;;;24.43;;
2019;SDS011;1014;51.960;8.542;2022-08-19T10:34:25;24.63;;;23.13;;
2019;SDS011;1014;51.960;8.542;2022-08-19T10:36:53;24.83;;;23.40;;
2019;SDS011;1014;51.960;8.542;2022-08-19T10:39:21;26.40;;;24.80;;
2019;SDS011;1014;51.960;8.542;2022-08-19T10:41:48;26.17;;;24.67;;
2019;SDS011;1014;51.960;8.542;2022-08-19T10:44:16;27.10;;;25.40;;
2019;SDS011;1014;51.960;8.542;2022-08-19T10:46:44;25.83;;;24.33;;
2019;SDS011;1014;51.960;8.542;2022-08-19T10:49:12;26.93;;;25.23;;
2019;SDS011;1014;51.960;8.542;2022-08-19T10:51:39;28.10;;;26.23;;
2019;SDS011;1014;51.960;8.542;2022-08-19T10:54:26;28.00;;;26.20;;
2019;SDS011;1014;51.960;8.542;2022-08-19T10:57:13;27.60;;;25.80;;
2019;SDS011;1014;51.960;8.542;2022-08-19T10:59:41;26.37;;;24.57;;
2019;SDS011;1014;51.960;8.542;2022-08-19T11:02:09;25.63;;;24.13;;
2019;SDS011;1014;51.960;8.542;2022-08-19T11:04:37;26.33;;;24.93;;
2019;SDS011;1014;51.960;8.542;2022-08-19T11:07:05;26.10;;;24.50;;
2019;SDS011;1014;51.960;8.542;2022-08-19T11:09:38;25.43;;;23.83;;
2019;SDS011;1014;51.960;8.542;2022-08-19T11:12:06;25.40;;;23.90;;
2019;SDS011;1014;51.960;8.542;2022-08-19T11:14:33;25.83;;;24.33;;
2019;SDS011;1014;51.960;8.542;2022-08-19T11:17:02;25.40;;;23.80;;
2019;SDS011;1014;51.960;8.542;2022-08-19T11:19:29;25.87;;;24.10;;
2019;SDS011;1014;51.960;8.542;2022-08-19T11:21:57;26.00;;;24.47;;
2019;SDS011;1014;51.960;8.542;2022-08-19T11:24:28;25.50;;;24.00;;
2019;SDS011;1014;51.960;8.542;2022-08-19T11:27:01;26.40;;;24.60;;
2019;SDS011;1014;51.960;8.542;2022-08-19T11:29:29;26.17;;;24.57;;
2019;SDS011;1014;51.960;8.542;2022-08-19T11:31:56;25.73;;;24.13;;
2019;SDS011;1014;51.960;8.542;2022-08-19T11:34:25;25.07;;;23.60;;
2019;SDS011;1014;51.960;8.542;2022-08-19T11:36:54;26.20;;;24.40;;
2019;SDS011;1014;51.960;8.542;2022-08-19T11:39:24;24.83;;;23.43;;
2019;SDS011;1014;51.960;8.542;2022-08-19T11:41:52;25.67;;;24.23;;
2019;SDS011;1014;51.960;8.542;2022-08-19T11:44:21;24.80;;;23.33;;
2019;SDS011;1014;51.960;8.542;2022-08-19T11:46:48;26.00;;;24.50;;
2019;SDS011;1014;51.960;8.542;2022-08-19T11:49:16;25.80;;;24.27;;
2019;SDS011;1014;51.960;8.542;2022-08-19T11:51:45;25.93;;;24.33;;
2019;SDS011;1014;51.960;8.542;2022-08-19T11:54:13;25.70;;;24.20;;
2019;SDS011;1014;51.960;8.542;2022-08-19T11:56:41;25.67;;;24.17;;
2019;SDS011;1014;51.960;8.542;2022-08-19T11:59:08;25.57;;;24.07;;
2019;SDS011;1014;51.960;8.542;2022-08-19T12:01:37;26.53;;;24.93;;
2019;SDS011;1014;51.960;8.542;2022-08-19T12:04:07;24.30;;;23.00;;
2019;SDS011;1014;51.960;8.542;2022-08-19T12:06:36;25.80;;;24.40;;
2019;SDS011;1014;51.960;8.542;2022-08-19T12:09:05;25.90;;;24.47;;
2019;SDS011;1014;51.960;8.542;2022-08-19T12:11:33;25.40;;;24.00;;
2019;SDS011;1014;51.960;8.542;2022-08-19T12:14:01;26.37;;;24.60;;
2019;SDS011;1014;51.960;8.542;2022-08-19T12:16:29;25.30;;;23.90;;
2019;SDS011;1014;51.960;8.542;2022-08-19T12:18:59;26.07;;;24.53;;
2019;SDS011;1014;51.960;8.542;2022-08-19T12:21:29;26.77;;;25.27;;
2019;SDS011;1014;51.960;8.542;2022-08-19T12:23:58;26.30;;;24.80;;
2019;SDS011;1014;51.960;8.542;2022-08-19T12:26:26;26.10;;;24.60;;
2019;SDS011;1014;51.960;8.542;2022-08-19T12:28:54;25.53;;;24.07;;
2019;SDS011;1014;51.960;8.542;2022-08-19T12:31:23;26.07;;;24.57;;
2019;SDS011;1014;51.960;8.542;2022-08-19T12:33:51;26.07;;;24.57;;
2019;SDS011;1014;51.960;8.542;2022-08-19T12:36:20;26.10;;;24.60;;
2019;SDS011;1014;51.960;8.542;2022-08-19T12:38:48;26.47;;;24.87;;
2019;SDS011;1014;51.960;8.542;2022-08-19T12:41:15;26.43;;;24.90;;
2019;SDS011;1014;51.960;8.542;2022-08-19T12:43:43;27.43;;;25.77;;
2019;SDS011;1014;51.960;8.542;2022-08-19T12:46:11;27.07;;;25.27;;
2019;SDS011;1014;51.960;8.542;2022-08-19T12:48:39;28.33;;;26.60;;
2019;SDS011;1014;51.960;8.542;2022-08-19T12:51:08;25.70;;;24.10;;
2019;SDS011;1014;51.960;8.542;2022-08-19T12:53:37;26.63;;;25.13;;
2019;SDS011;1014;51.960;8.542;2022-08-19T12:56:05;26.80;;;25.30;;
2019;SDS011;1014;51.960;8.542;2022-08-19T12:58:32;27.80;;;26.10;;
2019;SDS011;1014;51.960;8.542;2022-08-19T13:01:05;26.60;;;25.10;;
2019;SDS011;1014;51.960;8.542;2022-08-19T13:03:33;25.30;;;23.90;;
2019;SDS011;1014;51.960;8.542;2022-08-19T13:06:00;27.00;;;25.50;;
2019;SDS011;1014;51.960;8.542;2022-08-19T13:08:27;26.00;;;24.50;;
2019;SDS011;1014;51.960;8.542;2022-08-19T13:10:56;27.43;;;25.73;;
2019;SDS011;1014;51.960;8.542;2022-08-19T13:13:24;27.07;;;25.30;;
2019;SDS011;1014;51.960;8.542;2022-08-19T13:15:52;25.83;;;24.33;;
2019;SDS011;1014;51.960;8.542;2022-08-19T13:18:19;25.80;;;24.30;;
2019;SDS011;1014;51.960;8.542;2022-08-19T13:20:47;26.80;;;25.20;;
2019;SDS011;1014;51.960;8.542;2022-08-19T13:23:14;27.30;;;25.73;;
2019;SDS011;1014;51.960;8.542;2022-08-19T13:25:41;27.13;;;25.40;;
2019;SDS011;1014;51.960;8.542;2022-08-19T13:28:10;26.73;;;25.03;;
2019;SDS011;1014;51.960;8.542;2022-08-19T13:30:37;28.03;;;26.40;;
2019;SDS011;1014;51.960;8.542;2022-08-19T13:33:22;26.67;;;24.80;;
2019;SDS011;1014;51.960;8.542;2022-08-19T13:35:57;26.37;;;24.70;;
2019;SDS011;1014;51.960;8.542;2022-08-19T13:38:25;26.50;;;24.90;;
2019;SDS011;1014;51.960;8.542;2022-08-19T13:40:54;28.00;;;26.30;;
2019;SDS011;1014;51.960;8.542;2022-08-19T13:43:24;27.13;;;25.60;;
2019;SDS011;1014;51.960;8.542;2022-08-19T13:45:53;27.67;;;25.70;;
2019;SDS011;1014;51.960;8.542;2022-08-19T13:48:21;26.43;;;24.83;;
2019;SDS011;1014;51.960;8.542;2022-08-19T13:50:49;25.60;;;24.20;;
2019;SDS011;1014;51.960;8.542;2022-08-19T13:53:16;26.50;;;24.90;;
2019;SDS011;1014;51.960;8.542;2022-08-19T13:55:44;26.37;;;24.80;;
2019;SDS011;1014;51.960;8.542;2022-08-19T13:58:11;26.40;;;24.90;;
2019;SDS011;1014;51.960;8.542;2022-08-19T14:00:42;27.70;;;25.60;;
2019;SDS011;1014;51.960;8.542;2022-08-19T14:03:10;27.43;;;25.83;;
2019;SDS011;1014;51.960;8.542;2022-08-19T14:05:37;26.63;;;25.03;;
2019;SDS011;1014;51.960;8.542;2022-08-19T14:08:05;27.20;;;25.60;;
2019;SDS011;1014;51.960;8.542;2022-08-19T14:10:32;26.57;;;24.87;;
2019;SDS011;1014;51.960;8.542;2022-08-19T14:13:00;27.73;;;26.13;;
2019;SDS011;1014;51.960;8.542;2022-08-19T14:15:28;26.83;;;25.30;;
2019;SDS011;1014;51.960;8.542;2022-08-19T14:17:57;26.90;;;24.80;;
2019;SDS011;1014;51.960;8.542;2022-08-19T14:20:25;26.70;;;25.20;;
2019;SDS011;1014;51.960;8.542;2022-08-19T14:22:53;25.70;;;24.20;;
2019;SDS011;1014;51.960;8.542;2022-08-19T14:25:21;26.47;;;24.77;;
2019;SDS011;1014;51.960;8.542;2022-08-19T14:27:50;25.50;;;24.07;;
2019;SDS011;1014;51.960;8.542;2022-08-19T14:30:18;26.17;;;24.67;;
2019;SDS011;1014;51.960;8.542;2022-08-19T14:32:45;26.23;;;24.60;;
2019;SDS011;1014;51.960;8.542;2022-08-19T14:35:15;26.00;;;24.40;;
2019;SDS011;1014;51.960;8.542;2022-08-19T14:37:44;26.47;;;24.70;;
2019;SDS011;1014;51.960;8.542;2022-08-19T14:40:12;25.37;;;23.87;;
2019;SDS011;1014;51.960;8.542;2022-08-19T14:42:39;26.50;;;24.80;;
2019;SDS011;1014;51.960;8.542;2022-08-19T14:45:07;25.30;;;23.67;;
2019;SDS011;1014;51.960;8.542;2022-08-19T14:47:35;25.70;;;24.20;;
2019;SDS011;1014;51.960;8.542;2022-08-19T14:50:04;24.70;;;23.10;;
2019;SDS011;1014;51.960;8.542;2022-08-19T14:52:33;25.07;;;23.37;;
2019;SDS011;1014;51.960;8.542;2022-08-19T14:55:00;26.17;;;24.60;;
2019;SDS011;1014;51.960;8.542;2022-08-19T14:57:28;24.60;;;23.07;;